createdAt,value
2023-03-21T00:00:48.245Z,7.07
2023-03-21T00:03:16.403Z,6.90
2023-03-21T00:05:51.966Z,4.82
2023-03-21T00:08:22.549Z,8.45
2023-03-21T00:10:56.210Z,8.27
2023-03-21T00:13:22.966Z,5.57
2023-03-21T00:16:06.928Z,7.13
2023-03-21T00:18:48.726Z,6.45
2023-03-21T00:24:06.658Z,6.25
2023-03-21T00:26:33.594Z,7.37
2023-03-21T00:29:03.105Z,5.10
2023-03-21T00:31:30.207Z,8.65
2023-03-21T00:33:56.887Z,7.43
2023-03-21T00:36:25.750Z,10.05
2023-03-21T00:38:53.021Z,5.07
2023-03-21T00:41:35.219Z,8.68
2023-03-21T00:44:06.289Z,6.85
2023-03-21T00:46:42.734Z,6.15
2023-03-21T00:49:12.029Z,5.00
2023-03-21T00:51:40.799Z,9.40
2023-03-21T00:54:07.889Z,6.45
2023-03-21T00:56:34.457Z,6.18
2023-03-21T00:59:01.427Z,7.30
2023-03-21T01:01:32.111Z,5.85
2023-03-21T01:04:04.868Z,7.75
2023-03-21T01:06:33.086Z,5.07
2023-03-21T01:08:59.908Z,5.65
2023-03-21T01:11:30.551Z,5.03
2023-03-21T01:14:07.678Z,4.97
2023-03-21T01:16:38.350Z,7.13
2023-03-21T01:19:14.787Z,6.13
2023-03-21T01:21:45.219Z,6.63
2023-03-21T01:24:12.321Z,5.20
2023-03-21T01:26:39.309Z,6.68
2023-03-21T01:29:06.179Z,10.82
2023-03-21T01:31:33.088Z,7.05
2023-03-21T01:33:59.782Z,9.48
2023-03-21T01:36:26.886Z,5.68
2023-03-21T01:38:59.100Z,6.18
2023-03-21T01:41:47.575Z,7.80
2023-03-21T01:44:26.501Z,4.78
2023-03-21T01:47:09.372Z,7.65
2023-03-21T01:49:50.169Z,6.43
2023-03-21T01:52:40.607Z,6.47
2023-03-21T01:55:13.725Z,6.90
2023-03-21T01:58:19.015Z,5.63
2023-03-21T02:01:06.371Z,7.30
2023-03-21T02:03:50.292Z,8.23
2023-03-21T02:06:44.487Z,5.50
2023-03-21T02:09:25.970Z,5.00
2023-03-21T02:11:54.580Z,8.70
2023-03-21T02:14:28.971Z,8.40
2023-03-21T02:17:10.262Z,6.30
2023-03-21T02:19:54.122Z,5.40
2023-03-21T02:22:32.519Z,8.20
2023-03-21T02:25:16.246Z,8.18
2023-03-21T02:27:52.586Z,6.85
2023-03-21T02:30:49.123Z,7.47
2023-03-21T02:33:26.868Z,7.07
2023-03-21T02:36:14.389Z,7.60
2023-03-21T02:39:11.553Z,6.50
2023-03-21T02:42:05.522Z,8.82
2023-03-21T02:44:56.026Z,8.50
2023-03-21T02:47:29.319Z,8.77
2023-03-21T02:50:02.627Z,7.88
2023-03-21T02:52:39.301Z,8.82
2023-03-21T02:55:13.840Z,5.90
2023-03-21T02:57:48.643Z,6.25
2023-03-21T03:00:20.690Z,8.63
2023-03-21T03:02:54.647Z,8.85
2023-03-21T03:05:29.449Z,9.32
2023-03-21T03:08:04.599Z,8.10
2023-03-21T03:11:08.121Z,6.22
2023-03-21T03:13:49.759Z,7.07
2023-03-21T03:16:30.076Z,7.60
2023-03-21T03:19:00.774Z,7.63
2023-03-21T03:21:42.140Z,8.63
2023-03-21T03:24:16.570Z,6.93
2023-03-21T03:27:08.276Z,8.23
2023-03-21T03:29:39.324Z,7.63
2023-03-21T03:32:12.245Z,8.88
2023-03-21T03:34:43.380Z,7.93
2023-03-21T03:37:14.486Z,7.25
2023-03-21T03:39:48.153Z,11.07
2023-03-21T03:42:28.034Z,7.50
2023-03-21T03:45:07.664Z,7.10
2023-03-21T03:47:55.991Z,8.45
2023-03-21T03:50:34.499Z,6.50
2023-03-21T03:53:17.631Z,5.75
2023-03-21T03:55:45.600Z,8.35
2023-03-21T03:58:23.624Z,8.90
2023-03-21T04:00:54.194Z,12.05
2023-03-21T04:03:21.895Z,5.22
2023-03-21T04:05:49.059Z,7.65
2023-03-21T04:08:16.291Z,7.35
2023-03-21T04:10:47.314Z,8.15
2023-03-21T04:13:15.327Z,6.63
2023-03-21T04:15:47.621Z,8.30
2023-03-21T04:18:16.118Z,6.05
2023-03-21T04:20:44.992Z,4.20
2023-03-21T04:23:12.704Z,8.38
2023-03-21T04:25:55.857Z,10.00
2023-03-21T04:28:25.859Z,7.38
2023-03-21T04:31:06.906Z,12.63
2023-03-21T04:33:44.749Z,9.95
2023-03-21T04:36:24.649Z,7.55
2023-03-21T04:38:53.097Z,7.47
2023-03-21T04:41:20.286Z,7.38
2023-03-21T04:43:48.449Z,8.38
2023-03-21T04:46:15.409Z,7.55
2023-03-21T04:48:42.298Z,8.00
2023-03-21T04:51:08.728Z,8.20
2023-03-21T04:53:35.472Z,11.13
2023-03-21T04:56:02.009Z,9.77
2023-03-21T04:58:28.530Z,8.25
2023-03-21T05:00:55.090Z,11.32
2023-03-21T05:03:21.872Z,8.98
2023-03-21T05:05:48.738Z,9.20
2023-03-21T05:08:15.813Z,11.15
2023-03-21T05:10:43.230Z,7.07
2023-03-21T05:13:10.363Z,10.60
2023-03-21T05:15:37.091Z,7.95
2023-03-21T05:18:11.361Z,10.50
2023-03-21T05:20:53.486Z,7.88
2023-03-21T05:23:21.314Z,8.65
2023-03-21T05:25:47.964Z,7.05
2023-03-21T05:28:20.390Z,9.35
2023-03-21T05:30:48.544Z,7.60
2023-03-21T05:33:15.996Z,7.93
2023-03-21T05:35:43.340Z,9.35
2023-03-21T05:38:11.795Z,7.88
2023-03-21T05:40:49.095Z,6.60
2023-03-21T05:43:16.402Z,7.97
2023-03-21T05:45:43.328Z,7.82
2023-03-21T05:48:10.390Z,9.68
2023-03-21T05:50:53.742Z,7.22
2023-03-21T05:53:23.220Z,7.35
2023-03-21T05:55:50.043Z,6.85
2023-03-21T05:58:34.748Z,10.88
2023-03-21T06:01:01.282Z,8.88
2023-03-21T06:03:32.269Z,8.15
2023-03-21T06:06:04.642Z,10.18
2023-03-21T06:08:38.846Z,8.00
2023-03-21T06:11:06.373Z,8.77
2023-03-21T06:16:01.567Z,8.93
2023-03-21T06:18:28.723Z,9.70
2023-03-21T06:21:02.973Z,8.15
2023-03-21T06:23:30.039Z,7.75
2023-03-21T06:25:57.751Z,9.52
2023-03-21T06:28:25.942Z,10.63
2023-03-21T06:30:52.724Z,9.82
2023-03-21T06:33:23.175Z,8.82
2023-03-21T06:35:53.906Z,10.98
2023-03-21T06:38:22.241Z,9.07
2023-03-21T06:40:49.645Z,6.57
2023-03-21T06:43:16.765Z,6.75
2023-03-21T06:45:44.664Z,8.10
2023-03-21T06:48:11.825Z,9.32
2023-03-21T06:50:49.376Z,9.48
2023-03-21T06:53:17.779Z,8.13
2023-03-21T06:56:04.359Z,9.25
2023-03-21T06:58:32.453Z,10.20
2023-03-21T07:01:00.114Z,7.28
2023-03-21T07:03:26.757Z,9.52
2023-03-21T07:05:53.654Z,7.20
2023-03-21T07:08:21.401Z,9.25
2023-03-21T07:10:47.977Z,6.80
2023-03-21T07:13:16.152Z,6.70
2023-03-21T07:15:54.102Z,7.93
2023-03-21T07:18:20.526Z,7.65
2023-03-21T07:20:50.936Z,7.22
2023-03-21T07:23:22.808Z,9.90
2023-03-21T07:25:50.314Z,9.48
2023-03-21T07:28:17.436Z,7.93
2023-03-21T07:30:44.531Z,7.18
2023-03-21T07:33:11.491Z,7.20
2023-03-21T07:35:38.406Z,8.43
2023-03-21T07:38:06.320Z,11.38
2023-03-21T07:40:32.818Z,8.55
2023-03-21T07:42:59.367Z,7.85
2023-03-21T07:45:30.259Z,7.32
2023-03-21T07:47:56.944Z,7.43
2023-03-21T07:50:23.659Z,6.57
2023-03-21T07:52:50.239Z,7.68
2023-03-21T07:55:17.288Z,7.50
2023-03-21T07:57:43.962Z,8.00
2023-03-21T08:00:10.977Z,8.40
2023-03-21T08:02:41.750Z,9.85
2023-03-21T08:05:11.477Z,9.23
2023-03-21T08:07:38.124Z,10.90
2023-03-21T08:10:04.826Z,7.95
2023-03-21T08:12:31.243Z,8.82
2023-03-21T08:15:00.595Z,8.35
2023-03-21T08:17:27.549Z,7.90
2023-03-21T08:19:53.998Z,10.32
2023-03-21T08:22:20.701Z,8.73
2023-03-21T08:24:47.094Z,8.88
2023-03-21T08:27:13.903Z,8.57
2023-03-21T08:29:42.292Z,6.88
2023-03-21T08:32:09.050Z,10.97
2023-03-21T08:34:35.571Z,7.00
2023-03-21T08:37:02.508Z,7.15
2023-03-21T08:39:28.953Z,7.40
2023-03-21T08:41:55.617Z,6.20
2023-03-21T08:44:22.059Z,4.90
2023-03-21T08:46:48.449Z,7.88
2023-03-21T08:49:14.877Z,14.43
2023-03-21T08:51:41.332Z,8.27
2023-03-21T08:54:07.954Z,5.50
2023-03-21T08:56:36.299Z,7.40
2023-03-21T09:01:32.482Z,6.18
2023-03-21T09:03:58.925Z,7.80
2023-03-21T09:06:26.877Z,8.20
2023-03-21T09:08:53.330Z,7.07
2023-03-21T09:11:19.794Z,10.70
2023-03-21T09:13:46.217Z,7.38
2023-03-21T09:16:12.687Z,5.82
2023-03-21T09:18:47.187Z,9.25
2023-03-21T09:21:16.066Z,7.45
2023-03-21T09:23:42.654Z,12.32
2023-03-21T09:26:09.627Z,8.35
2023-03-21T09:28:38.975Z,8.70
2023-03-21T09:31:06.379Z,9.02
2023-03-21T09:33:35.170Z,9.48
2023-03-21T09:36:01.718Z,9.60
2023-03-21T09:38:30.253Z,10.65
2023-03-21T09:41:17.136Z,8.15
2023-03-21T09:44:16.163Z,7.10
2023-03-21T09:47:10.794Z,8.05
2023-03-21T09:49:43.457Z,8.90
2023-03-21T09:52:16.102Z,8.93
2023-03-21T09:54:45.682Z,7.82
2023-03-21T09:57:20.645Z,8.77
2023-03-21T09:59:48.306Z,7.53
2023-03-21T10:02:47.005Z,7.75
2023-03-21T10:05:24.234Z,7.85
2023-03-21T10:07:59.119Z,12.05
2023-03-21T10:10:29.191Z,8.48
2023-03-21T10:12:56.566Z,9.05
2023-03-21T10:15:25.785Z,9.90
2023-03-21T10:20:27.198Z,11.25
2023-03-21T10:22:55.047Z,12.80
2023-03-21T10:25:33.874Z,10.68
2023-03-21T10:28:01.898Z,9.77
2023-03-21T10:30:36.165Z,9.02
2023-03-21T10:33:05.562Z,8.45
2023-03-21T10:35:34.044Z,9.73
2023-03-21T10:38:01.564Z,6.30
2023-03-21T10:40:28.016Z,10.85
2023-03-21T10:43:35.619Z,7.88
2023-03-21T10:46:12.981Z,10.15
2023-03-21T10:48:41.872Z,11.32
2023-03-21T10:51:09.167Z,11.65
2023-03-21T10:53:39.786Z,9.98
2023-03-21T10:56:09.223Z,11.15
2023-03-21T10:58:39.788Z,11.70
2023-03-21T11:01:10.452Z,9.07
2023-03-21T11:03:39.106Z,9.23
2023-03-21T11:06:09.574Z,12.15
2023-03-21T11:08:41.487Z,10.63
2023-03-21T11:11:09.830Z,9.77
2023-03-21T11:13:44.014Z,8.97
2023-03-21T11:16:18.367Z,8.68
2023-03-21T11:18:50.195Z,10.60
2023-03-21T11:21:17.643Z,9.57
2023-03-21T11:23:47.771Z,10.00
2023-03-21T11:26:24.032Z,8.23
2023-03-21T11:28:51.798Z,10.15
2023-03-21T11:31:18.710Z,6.88
2023-03-21T11:33:54.125Z,9.93
2023-03-21T11:36:20.730Z,11.38
2023-03-21T11:38:57.426Z,10.85
2023-03-21T11:41:32.038Z,7.47
2023-03-21T11:43:59.215Z,10.85
2023-03-21T11:46:27.548Z,13.32
2023-03-21T11:48:55.634Z,9.57
2023-03-21T11:51:37.127Z,8.90
2023-03-21T11:54:19.430Z,12.35
2023-03-21T11:56:49.346Z,10.43
2023-03-21T11:59:36.630Z,12.02
2023-03-21T12:02:37.268Z,10.00
2023-03-21T12:05:22.304Z,9.90
2023-03-21T12:08:07.414Z,10.38
2023-03-21T12:10:44.201Z,10.35
2023-03-21T12:13:36.804Z,12.73
2023-03-21T12:16:15.907Z,10.18
2023-03-21T12:19:13.121Z,9.18
2023-03-21T12:21:55.055Z,12.10
2023-03-21T12:24:43.716Z,10.05
2023-03-21T12:27:30.680Z,8.52
2023-03-21T12:30:19.859Z,12.68
2023-03-21T12:36:04.366Z,9.35
2023-03-21T12:38:49.487Z,13.75
2023-03-21T12:41:23.461Z,13.43
2023-03-21T12:43:59.118Z,14.77
2023-03-21T12:46:33.816Z,13.40
2023-03-21T12:49:02.592Z,12.48
2023-03-21T12:51:32.744Z,10.43
2023-03-21T12:54:07.674Z,12.10
2023-03-21T12:56:45.791Z,10.60
2023-03-21T12:59:33.351Z,10.32
2023-03-21T13:02:23.654Z,12.10
2023-03-21T13:05:28.214Z,6.65
2023-03-21T13:07:58.867Z,9.35
2023-03-21T13:10:25.724Z,9.52
2023-03-21T13:13:07.426Z,10.95
2023-03-21T13:15:56.188Z,10.57
2023-03-21T13:18:40.902Z,9.95
2023-03-21T13:21:38.393Z,8.57
2023-03-21T13:24:25.297Z,9.60
2023-03-21T13:27:07.002Z,8.98
2023-03-21T13:29:45.597Z,5.75
2023-03-21T13:32:38.789Z,7.55
2023-03-21T13:35:27.418Z,6.47
2023-03-21T13:37:58.750Z,8.13
2023-03-21T13:40:45.892Z,7.43
2023-03-21T13:43:35.765Z,7.45
2023-03-21T13:46:13.664Z,11.48
2023-03-21T13:48:57.739Z,8.77
2023-03-21T13:51:27.758Z,9.65
2023-03-21T13:54:07.455Z,12.32
2023-03-21T13:56:50.060Z,9.30
2023-03-21T13:59:38.485Z,7.05
2023-03-21T14:02:28.982Z,7.78
2023-03-21T14:05:05.457Z,6.63
2023-03-21T14:07:40.906Z,8.23
2023-03-21T14:10:22.626Z,9.63
2023-03-21T14:12:49.182Z,7.72
2023-03-21T14:15:27.669Z,7.43
2023-03-21T14:18:00.245Z,9.10
2023-03-21T14:20:38.333Z,6.63
2023-03-21T14:23:06.593Z,7.53
2023-03-21T14:25:40.946Z,6.70
2023-03-21T14:28:17.647Z,6.05
2023-03-21T14:30:44.598Z,8.85
2023-03-21T14:33:22.588Z,8.20
2023-03-21T14:35:49.273Z,9.90
2023-03-21T14:38:36.654Z,12.90
2023-03-21T14:41:04.413Z,7.88
2023-03-21T14:43:33.943Z,10.30
2023-03-21T14:46:01.119Z,10.10
2023-03-21T14:48:35.115Z,13.48
2023-03-21T14:51:03.972Z,11.30
2023-03-21T14:53:32.856Z,9.50
2023-03-21T14:56:07.997Z,10.30
2023-03-21T14:58:38.466Z,11.00
2023-03-21T15:01:07.486Z,13.00
2023-03-21T15:03:34.576Z,11.02
2023-03-21T15:06:01.561Z,13.85
2023-03-21T15:08:29.319Z,8.70
2023-03-21T15:11:07.993Z,20.55
2023-03-21T15:13:37.831Z,16.08
2023-03-21T15:16:04.611Z,9.48
2023-03-21T15:18:33.553Z,8.50
2023-03-21T15:21:03.927Z,9.65
2023-03-21T15:23:37.369Z,11.90
2023-03-21T15:26:04.330Z,8.32
2023-03-21T15:28:31.634Z,8.63
2023-03-21T15:30:58.212Z,7.43
2023-03-21T15:33:25.459Z,7.20
2023-03-21T15:35:55.488Z,8.90
2023-03-21T15:38:39.970Z,8.82
2023-03-21T15:41:16.205Z,9.93
2023-03-21T15:43:43.361Z,7.97
2023-03-21T15:46:14.885Z,8.15
2023-03-21T15:48:41.376Z,6.80
2023-03-21T15:51:14.617Z,6.53
2023-03-21T15:53:42.755Z,9.38
2023-03-21T15:56:16.354Z,9.27
2023-03-21T15:58:44.626Z,9.15
2023-03-21T16:01:34.848Z,8.90
2023-03-21T16:04:06.916Z,7.55
2023-03-21T16:06:36.605Z,8.35
2023-03-21T16:09:22.002Z,8.60
2023-03-21T16:11:53.225Z,8.88
2023-03-21T16:14:20.593Z,9.55
2023-03-21T16:16:47.222Z,26.30
2023-03-21T16:19:14.251Z,15.23
2023-03-21T16:21:41.716Z,13.85
2023-03-21T16:24:11.455Z,11.85
2023-03-21T16:26:42.632Z,15.00
2023-03-21T16:29:11.991Z,8.50
2023-03-21T16:31:38.474Z,8.45
2023-03-21T16:34:05.110Z,10.20
2023-03-21T16:36:33.780Z,8.27
2023-03-21T16:39:00.621Z,8.38
2023-03-21T16:41:27.564Z,8.15
2023-03-21T16:43:54.081Z,5.90
2023-03-21T16:46:25.730Z,6.93
2023-03-21T16:48:56.766Z,7.30
2023-03-21T16:51:32.155Z,7.22
2023-03-21T16:53:58.632Z,6.82
2023-03-21T16:56:27.261Z,7.90
2023-03-21T16:58:54.603Z,7.25
2023-03-21T17:01:25.897Z,7.05
2023-03-21T17:03:53.067Z,8.00
2023-03-21T17:06:22.250Z,8.77
2023-03-21T17:08:48.698Z,9.48
2023-03-21T17:11:17.720Z,7.07
2023-03-21T17:13:44.329Z,6.93
2023-03-21T17:16:12.888Z,6.63
2023-03-21T17:18:39.538Z,6.80
2023-03-21T17:21:14.447Z,8.27
2023-03-21T17:23:41.049Z,6.35
2023-03-21T17:26:10.564Z,6.90
2023-03-21T17:28:37.778Z,5.50
2023-03-21T17:31:06.255Z,8.55
2023-03-21T17:33:33.263Z,7.97
2023-03-21T17:35:59.680Z,8.90
2023-03-21T17:38:26.169Z,6.25
2023-03-21T17:40:52.590Z,10.63
2023-03-21T17:43:20.896Z,9.85
2023-03-21T17:45:47.351Z,8.20
2023-03-21T17:48:13.859Z,8.50
2023-03-21T17:50:40.895Z,7.72
2023-03-21T17:53:07.673Z,23.75
2023-03-21T17:55:34.864Z,14.63
2023-03-21T17:58:01.534Z,12.73
2023-03-21T18:00:31.335Z,68.78
2023-03-21T18:02:58.177Z,42.70
2023-03-21T18:05:25.318Z,202.57
2023-03-21T18:10:40.604Z,117.38
2023-03-21T18:13:08.524Z,68.03
2023-03-21T18:15:37.955Z,16.40
2023-03-21T18:18:05.422Z,25.13
2023-03-21T18:23:19.265Z,62.80
2023-03-21T18:25:45.957Z,19.15
2023-03-21T18:28:13.162Z,22.13
2023-03-21T18:31:05.245Z,31.73
2023-03-21T18:33:27.561Z,30.20
2023-03-21T18:35:59.185Z,25.95
2023-03-21T18:38:27.441Z,18.55
2023-03-21T18:40:54.144Z,10.02
2023-03-21T18:44:01.365Z,8.10
2023-03-21T18:46:07.646Z,8.57
2023-03-21T18:48:35.682Z,6.70
2023-03-21T18:51:03.644Z,6.82
2023-03-21T18:53:30.898Z,7.97
2023-03-21T18:55:57.975Z,9.65
2023-03-21T19:01:04.386Z,6.88
2023-03-21T19:03:36.572Z,8.13
2023-03-21T19:06:06.484Z,6.63
2023-03-21T19:11:11.720Z,13.80
2023-03-21T19:13:38.776Z,11.70
2023-03-21T19:16:10.938Z,15.88
2023-03-21T19:18:54.052Z,10.30
2023-03-21T19:21:22.204Z,10.00
2023-03-21T19:24:22.767Z,18.73
2023-03-21T19:26:39.830Z,7.90
2023-03-21T19:29:07.554Z,14.57
2023-03-21T19:31:34.946Z,14.63
2023-03-21T19:34:02.034Z,9.15
2023-03-21T19:36:34.550Z,11.07
2023-03-21T19:42:16.811Z,31.55
2023-03-21T19:44:44.805Z,26.23
2023-03-21T19:53:30.935Z,12.57
2023-03-21T19:56:03.521Z,12.20
2023-03-21T19:58:31.387Z,10.13
2023-03-21T20:00:59.193Z,10.80
2023-03-21T20:03:26.336Z,12.45
2023-03-21T20:06:02.473Z,12.35
2023-03-21T20:08:42.848Z,7.22
2023-03-21T20:11:17.965Z,6.85
2023-03-21T20:13:46.295Z,11.45
2023-03-21T20:16:13.673Z,33.83
2023-03-21T20:18:41.808Z,18.42
2023-03-21T20:21:17.525Z,23.55
2023-03-21T20:23:49.218Z,6.22
2023-03-21T20:26:16.891Z,6.95
2023-03-21T20:28:56.540Z,4.57
2023-03-21T20:31:32.996Z,7.88
2023-03-21T20:34:00.051Z,4.88
2023-03-21T20:36:43.763Z,6.50
2023-03-21T20:39:11.091Z,5.20
2023-03-21T20:41:38.290Z,6.82
2023-03-21T20:46:52.522Z,10.38
2023-03-21T20:49:23.172Z,12.35
2023-03-21T20:52:46.217Z,7.78
2023-03-21T20:54:37.855Z,8.23
2023-03-21T20:57:05.187Z,6.72
2023-03-21T20:59:32.102Z,9.45
2023-03-21T21:01:59.066Z,7.45
2023-03-21T21:04:46.730Z,7.60
2023-03-21T21:17:15.493Z,7.00
2023-03-21T21:19:53.141Z,4.90
2023-03-21T21:22:20.828Z,5.70
2023-03-21T21:25:18.126Z,5.13
2023-03-21T21:27:53.938Z,14.32
2023-03-21T21:30:20.914Z,8.98
2023-03-21T21:32:49.282Z,6.95
2023-03-21T21:35:17.937Z,8.83
2023-03-21T21:37:44.964Z,8.52
2023-03-21T21:40:20.245Z,5.88
2023-03-21T21:42:46.919Z,8.32
2023-03-21T21:45:14.251Z,8.23
2023-03-21T21:47:41.068Z,7.80
2023-03-21T21:50:08.302Z,6.85
2023-03-21T21:52:35.560Z,10.93
2023-03-21T21:55:04.094Z,9.65
2023-03-21T21:57:34.085Z,5.95
2023-03-21T22:00:06.854Z,7.25
2023-03-21T22:02:39.025Z,5.80
2023-03-21T22:05:06.965Z,6.05
2023-03-21T22:19:58.939Z,4.70
2023-03-21T22:22:31.304Z,4.90
2023-03-21T22:24:57.848Z,6.57
2023-03-21T22:36:11.117Z,6.00
2023-03-21T22:38:38.341Z,5.72
2023-03-21T22:41:06.440Z,5.75
2023-03-21T22:43:40.721Z,4.85
2023-03-21T22:46:07.734Z,4.57
2023-03-21T22:48:34.805Z,4.65
2023-03-21T22:51:05.622Z,5.43
2023-03-21T22:53:32.138Z,5.15
2023-03-21T22:55:58.764Z,5.85
2023-03-21T23:04:04.619Z,7.15
2023-03-21T23:06:31.684Z,6.28
2023-03-21T23:15:13.058Z,6.07
2023-03-21T23:17:39.839Z,3.95
2023-03-21T23:20:11.018Z,5.00
2023-03-21T23:22:37.852Z,7.40
2023-03-21T23:25:08.376Z,4.80
2023-03-21T23:27:35.830Z,6.30
2023-03-21T23:30:04.970Z,4.95
2023-03-21T23:32:32.166Z,5.82
2023-03-21T23:34:59.784Z,6.00
2023-03-21T23:37:26.551Z,4.32
2023-03-21T23:39:55.253Z,6.85
2023-03-21T23:42:25.434Z,7.60
2023-03-21T23:44:52.305Z,5.93
2023-03-21T23:47:19.323Z,5.50
2023-03-21T23:49:49.149Z,6.60
2023-03-21T23:52:16.349Z,6.38
2023-03-21T23:54:43.400Z,3.67
2023-03-21T23:57:10.348Z,4.63
2023-03-21T23:59:36.919Z,5.82
